createdAt,value
2022-09-18T00:00:15.352Z,97819.56
2022-09-18T00:01:13.137Z,97819.98
2022-09-18T00:01:46.442Z,97818.98
2022-09-18T00:02:19.679Z,97817.08
2022-09-18T00:02:53.040Z,97813.99
2022-09-18T00:03:27.841Z,97816.50
2022-09-18T00:04:04.657Z,97812.44
2022-09-18T00:04:37.889Z,97815.61
2022-09-18T00:05:11.859Z,97811.68
2022-09-18T00:05:45.013Z,97811.47
2022-09-18T00:06:24.083Z,97810.01
2022-09-18T00:06:57.339Z,97810.65
2022-09-18T00:07:30.730Z,97810.90
2022-09-18T00:08:04.747Z,97812.98
2022-09-18T00:08:43.882Z,97807.88
2022-09-18T00:09:17.266Z,97809.17
2022-09-18T00:09:50.405Z,97808.84
2022-09-18T00:10:23.809Z,97806.23
2022-09-18T00:10:57.025Z,97809.35
2022-09-18T00:11:35.701Z,97804.83
2022-09-18T00:12:08.793Z,97801.10
2022-09-18T00:12:41.938Z,97803.27
2022-09-18T00:13:15.712Z,97802.54
2022-09-18T00:13:50.148Z,97803.13
2022-09-18T00:14:24.115Z,97798.39
2022-09-18T00:14:57.295Z,97800.41
2022-09-18T00:15:30.620Z,97797.52
2022-09-18T00:16:04.802Z,97798.49
2022-09-18T00:16:38.750Z,97801.81
2022-09-18T00:17:12.083Z,97797.11
2022-09-18T00:17:45.285Z,97794.64
2022-09-18T00:18:18.453Z,97798.52
2022-09-18T00:18:53.031Z,97796.55
2022-09-18T00:19:26.477Z,97796.90
2022-09-18T00:19:59.532Z,97795.45
2022-09-18T00:20:37.554Z,97797.55
2022-09-18T00:21:22.631Z,97795.18
2022-09-18T00:21:56.364Z,97796.85
2022-09-18T00:22:29.855Z,97795.13
2022-09-18T00:23:03.551Z,97795.67
2022-09-18T00:23:37.457Z,97791.83
2022-09-18T00:24:11.314Z,97789.25
2022-09-18T00:24:44.418Z,97786.45
2022-09-18T00:25:17.448Z,97787.92
2022-09-18T00:25:50.809Z,97787.30
2022-09-18T00:26:26.013Z,97790.36
2022-09-18T00:26:59.158Z,97782.63
2022-09-18T00:27:32.371Z,97786.48
2022-09-18T00:28:05.454Z,97784.59
2022-09-18T00:28:39.213Z,97784.31
2022-09-18T00:29:13.897Z,97781.66
2022-09-18T00:29:47.281Z,97784.87
2022-09-18T00:30:20.535Z,97781.70
2022-09-18T00:30:54.252Z,97782.50
2022-09-18T00:31:33.997Z,97780.77
2022-09-18T00:32:07.344Z,97779.61
2022-09-18T00:32:40.625Z,97783.06
2022-09-18T00:33:13.785Z,97778.78
2022-09-18T00:33:47.334Z,97778.62
2022-09-18T00:34:20.528Z,97778.25
2022-09-18T00:34:53.539Z,97781.45
2022-09-18T00:35:26.768Z,97777.02
2022-09-18T00:36:04.924Z,97780.77
2022-09-18T00:36:40.005Z,97781.19
2022-09-18T00:37:13.503Z,97780.50
2022-09-18T00:37:46.599Z,97780.34
2022-09-18T00:38:19.844Z,97778.46
2022-09-18T00:38:54.038Z,97779.67
2022-09-18T00:39:27.336Z,97781.58
2022-09-18T00:40:00.747Z,97781.05
2022-09-18T00:40:34.101Z,97780.94
2022-09-18T00:41:13.451Z,97778.08
2022-09-18T00:41:46.805Z,97779.86
2022-09-18T00:42:20.832Z,97780.05
2022-09-18T00:42:54.305Z,97777.84
2022-09-18T00:43:30.022Z,97774.61
2022-09-18T00:44:36.763Z,97778.66
2022-09-18T00:45:11.051Z,97772.73
2022-09-18T00:45:47.337Z,97772.10
2022-09-18T00:46:23.959Z,97774.00
2022-09-18T00:47:34.485Z,97772.54
2022-09-18T00:48:09.678Z,97770.25
2022-09-18T00:49:04.912Z,97771.32
2022-09-18T00:50:02.581Z,97768.39
2022-09-18T00:50:35.995Z,97767.04
2022-09-18T00:51:09.551Z,97768.14
2022-09-18T00:51:44.778Z,97767.63
2022-09-18T00:52:21.554Z,97765.92
2022-09-18T00:53:00.617Z,97765.71
2022-09-18T00:53:35.006Z,97762.64
2022-09-18T00:54:15.264Z,97765.52
2022-09-18T00:54:53.537Z,97762.98
2022-09-18T00:55:34.276Z,97760.32
2022-09-18T00:56:08.645Z,97758.88
2022-09-18T00:56:43.028Z,97756.67
2022-09-18T00:57:24.798Z,97756.61
2022-09-18T00:58:01.510Z,97758.29
2022-09-18T00:58:35.499Z,97757.27
2022-09-18T00:59:14.259Z,97758.86
2022-09-18T00:59:50.952Z,97757.17
2022-09-18T01:00:25.205Z,97753.34
2022-09-18T01:01:01.592Z,97754.98
2022-09-18T01:01:34.810Z,97754.83
2022-09-18T01:02:07.999Z,97754.20
2022-09-18T01:02:43.684Z,97755.21
2022-09-18T01:03:16.912Z,97754.33
2022-09-18T01:03:50.134Z,97752.02
2022-09-18T01:04:23.638Z,97751.46
2022-09-18T01:04:56.935Z,97753.67
2022-09-18T01:05:57.935Z,97749.31
2022-09-18T01:06:38.843Z,97751.55
2022-09-18T01:07:17.689Z,97749.69
2022-09-18T01:08:03.528Z,97750.63
2022-09-18T01:08:54.704Z,97748.59
2022-09-18T01:09:48.602Z,97748.35
2022-09-18T01:10:51.374Z,97745.69
2022-09-18T01:11:58.885Z,97745.14
2022-09-18T01:12:56.351Z,97744.12
2022-09-18T01:13:59.956Z,97746.67
2022-09-18T01:14:52.877Z,97738.79
2022-09-18T01:15:28.980Z,97737.92
2022-09-18T01:16:37.590Z,97739.98
2022-09-18T01:17:26.259Z,97737.09
2022-09-18T01:18:41.886Z,97733.83
2022-09-18T01:19:54.272Z,97732.73
2022-09-18T01:20:55.212Z,97731.80
2022-09-18T01:21:50.676Z,97735.77
2022-09-18T01:22:51.700Z,97732.64
2022-09-18T01:23:52.557Z,97730.91
2022-09-18T01:24:55.739Z,97734.48
2022-09-18T01:25:37.779Z,97734.61
2022-09-18T01:26:21.931Z,97733.03
2022-09-18T01:27:03.289Z,97737.60
2022-09-18T01:27:43.929Z,97735.49
2022-09-18T01:28:24.828Z,97731.42
2022-09-18T01:29:09.131Z,97732.96
2022-09-18T01:30:06.138Z,97732.64
2022-09-18T01:30:43.107Z,97729.11
2022-09-18T01:31:25.342Z,97732.52
2022-09-18T01:32:06.637Z,97732.91
2022-09-18T01:32:59.478Z,97733.65
2022-09-18T01:33:50.618Z,97729.96
2022-09-18T01:34:26.553Z,97732.27
2022-09-18T01:35:18.731Z,97729.56
2022-09-18T01:36:08.320Z,97729.95
2022-09-18T01:36:49.756Z,97727.77
2022-09-18T01:37:36.718Z,97729.79
2022-09-18T01:38:37.202Z,97730.83
2022-09-18T01:39:17.232Z,97732.00
2022-09-18T01:40:00.533Z,97728.67
2022-09-18T01:41:03.260Z,97729.27
2022-09-18T01:41:40.176Z,97724.84
2022-09-18T01:42:17.946Z,97725.38
2022-09-18T01:42:55.358Z,97725.86
2022-09-18T01:43:32.027Z,97726.51
2022-09-18T01:44:18.163Z,97726.98
2022-09-18T01:44:56.149Z,97723.76
2022-09-18T01:45:33.921Z,97723.19
2022-09-18T01:46:18.137Z,97725.20
2022-09-18T01:46:53.179Z,97724.52
2022-09-18T01:47:32.839Z,97723.30
2022-09-18T01:48:08.815Z,97724.15
2022-09-18T01:48:51.496Z,97721.45
2022-09-18T01:49:31.508Z,97723.83
2022-09-18T01:50:07.327Z,97718.61
2022-09-18T01:50:48.659Z,97720.83
2022-09-18T01:51:36.508Z,97722.48
2022-09-18T01:52:22.084Z,97722.41
2022-09-18T01:53:16.870Z,97720.55
2022-09-18T01:54:04.765Z,97720.98
2022-09-18T01:54:42.503Z,97723.67
2022-09-18T01:55:21.206Z,97721.92
2022-09-18T01:56:01.686Z,97725.67
2022-09-18T01:56:40.487Z,97723.73
2022-09-18T01:57:27.888Z,97721.58
2022-09-18T01:58:10.162Z,97722.55
2022-09-18T01:58:45.262Z,97725.64
2022-09-18T01:59:37.404Z,97721.88
2022-09-18T02:00:12.891Z,97724.86
2022-09-18T02:00:51.580Z,97724.78
2022-09-18T02:01:29.614Z,97719.56
2022-09-18T02:02:07.637Z,97723.08
2022-09-18T02:03:02.239Z,97722.72
2022-09-18T02:03:59.028Z,97721.88
2022-09-18T02:04:36.187Z,97721.04
2022-09-18T02:05:14.701Z,97725.58
2022-09-18T02:05:56.508Z,97725.35
2022-09-18T02:06:32.602Z,97724.52
2022-09-18T02:07:30.467Z,97724.55
2022-09-18T02:08:30.362Z,97722.81
2022-09-18T02:09:04.211Z,97720.59
2022-09-18T02:09:37.771Z,97720.98
2022-09-18T02:10:10.847Z,97721.34
2022-09-18T02:10:52.546Z,97718.15
2022-09-18T02:11:25.988Z,97721.14
2022-09-18T02:12:01.623Z,97720.23
2022-09-18T02:12:39.360Z,97722.48
2022-09-18T02:13:18.583Z,97718.92
2022-09-18T02:14:33.311Z,97721.39
2022-09-18T02:15:11.452Z,97717.80
2022-09-18T02:15:49.124Z,97716.36
2022-09-18T02:16:30.778Z,97713.85
2022-09-18T02:17:11.018Z,97714.02
2022-09-18T02:17:54.086Z,97716.10
2022-09-18T02:18:37.692Z,97717.30
2022-09-18T02:19:25.722Z,97716.39
2022-09-18T02:20:14.105Z,97715.70
2022-09-18T02:20:47.874Z,97710.45
2022-09-18T02:21:28.899Z,97713.04
2022-09-18T02:22:07.213Z,97711.74
2022-09-18T02:22:45.030Z,97714.13
2022-09-18T02:23:18.770Z,97711.90
2022-09-18T02:23:53.952Z,97711.98
2022-09-18T02:24:36.561Z,97710.95
2022-09-18T02:25:13.756Z,97711.98
2022-09-18T02:25:59.964Z,97709.05
2022-09-18T02:26:35.853Z,97708.48
2022-09-18T02:27:11.703Z,97713.90
2022-09-18T02:27:45.002Z,97712.89
2022-09-18T02:28:22.055Z,97707.98
2022-09-18T02:28:56.846Z,97709.08
2022-09-18T02:29:31.866Z,97710.90
2022-09-18T02:30:06.864Z,97711.50
2022-09-18T02:30:40.121Z,97709.44
2022-09-18T02:31:13.390Z,97708.97
2022-09-18T02:31:46.697Z,97709.83
2022-09-18T02:32:19.958Z,97708.30
2022-09-18T02:32:55.439Z,97708.13
2022-09-18T02:33:34.131Z,97708.81
2022-09-18T02:34:09.549Z,97707.84
2022-09-18T02:34:43.056Z,97708.64
2022-09-18T02:35:16.334Z,97711.55
2022-09-18T02:35:56.561Z,97710.89
2022-09-18T02:37:09.249Z,97712.94
2022-09-18T02:37:52.019Z,97709.59
2022-09-18T02:38:34.387Z,97711.41
2022-09-18T02:39:42.984Z,97713.35
2022-09-18T02:40:38.617Z,97710.04
2022-09-18T02:41:24.017Z,97709.39
2022-09-18T02:42:03.131Z,97706.09
2022-09-18T02:42:41.900Z,97705.16
2022-09-18T02:43:54.611Z,97703.92
2022-09-18T02:44:39.886Z,97703.80
2022-09-18T02:45:16.130Z,97704.27
2022-09-18T02:46:06.101Z,97704.13
2022-09-18T02:47:04.060Z,97707.60
2022-09-18T02:48:03.213Z,97703.43
2022-09-18T02:48:48.234Z,97704.09
2022-09-18T02:49:37.092Z,97701.34
2022-09-18T02:50:32.471Z,97698.84
2022-09-18T02:51:37.260Z,97698.35
2022-09-18T02:53:00.102Z,97699.88
2022-09-18T02:53:46.575Z,97695.95
2022-09-18T02:54:28.481Z,97695.47
2022-09-18T02:55:29.410Z,97698.14
2022-09-18T02:56:09.157Z,97694.23
2022-09-18T02:56:52.801Z,97692.90
2022-09-18T02:57:40.721Z,97692.36
2022-09-18T02:58:26.351Z,97692.84
2022-09-18T02:59:24.823Z,97694.48
2022-09-18T03:00:01.744Z,97692.33
2022-09-18T03:00:36.532Z,97692.40
2022-09-18T03:01:12.297Z,97695.38
2022-09-18T03:01:46.444Z,97696.13
2022-09-18T03:02:23.119Z,97698.37
2022-09-18T03:02:59.960Z,97702.16
2022-09-18T03:03:37.600Z,97701.61
2022-09-18T03:04:13.683Z,97704.73
2022-09-18T03:04:46.800Z,97700.94
2022-09-18T03:05:20.093Z,97701.17
2022-09-18T03:05:53.080Z,97699.70
2022-09-18T03:06:26.184Z,97700.26
2022-09-18T03:06:59.532Z,97704.77
2022-09-18T03:07:32.721Z,97701.39
2022-09-18T03:08:05.910Z,97701.67
2022-09-18T03:08:39.232Z,97698.58
2022-09-18T03:09:13.492Z,97696.69
2022-09-18T03:09:46.809Z,97696.96
2022-09-18T03:10:19.927Z,97694.86
2022-09-18T03:10:52.953Z,97693.04
2022-09-18T03:11:26.103Z,97694.64
2022-09-18T03:11:59.315Z,97692.81
2022-09-18T03:12:32.460Z,97692.48
2022-09-18T03:13:05.409Z,97692.19
2022-09-18T03:13:38.564Z,97689.11
2022-09-18T03:14:12.894Z,97690.91
2022-09-18T03:14:45.902Z,97687.64
2022-09-18T03:15:18.953Z,97691.06
2022-09-18T03:15:52.174Z,97690.06
2022-09-18T03:16:25.473Z,97691.35
2022-09-18T03:16:58.592Z,97687.45
2022-09-18T03:17:31.673Z,97692.59
2022-09-18T03:18:04.744Z,97690.27
2022-09-18T03:18:37.790Z,97690.20
2022-09-18T03:19:12.092Z,97689.48
2022-09-18T03:19:46.224Z,97689.90
2022-09-18T03:20:19.491Z,97689.02
2022-09-18T03:20:52.664Z,97688.77
2022-09-18T03:21:26.969Z,97689.29
2022-09-18T03:22:00.266Z,97690.96
2022-09-18T03:22:33.458Z,97691.02
2022-09-18T03:23:06.572Z,97689.18
2022-09-18T03:23:44.786Z,97688.59
2022-09-18T03:24:20.058Z,97687.25
2022-09-18T03:24:53.192Z,97688.39
2022-09-18T03:25:26.214Z,97685.81
2022-09-18T03:25:59.289Z,97686.13
2022-09-18T03:26:32.512Z,97685.73
2022-09-18T03:27:05.773Z,97682.50
2022-09-18T03:27:39.272Z,97682.13
2022-09-18T03:28:12.624Z,97681.43
2022-09-18T03:28:45.609Z,97679.61
2022-09-18T03:29:18.719Z,97681.27
2022-09-18T03:29:51.717Z,97679.83
2022-09-18T03:30:24.781Z,97682.05
2022-09-18T03:30:58.048Z,97682.85
2022-09-18T03:31:31.430Z,97682.17
2022-09-18T03:32:05.089Z,97680.06
2022-09-18T03:32:38.229Z,97684.06
2022-09-18T03:33:11.367Z,97682.89
2022-09-18T03:33:44.353Z,97680.34
2022-09-18T03:34:17.696Z,97684.23
2022-09-18T03:34:51.109Z,97684.77
2022-09-18T03:35:24.183Z,97681.80
2022-09-18T03:35:57.349Z,97681.77
2022-09-18T03:36:30.752Z,97683.38
2022-09-18T03:37:04.095Z,97685.61
2022-09-18T03:37:37.389Z,97684.06
2022-09-18T03:38:10.976Z,97683.35
2022-09-18T03:38:44.461Z,97684.36
2022-09-18T03:39:18.336Z,97684.52
2022-09-18T03:39:51.569Z,97683.34
2022-09-18T03:40:24.879Z,97686.46
2022-09-18T03:40:58.095Z,97683.10
2022-09-18T03:41:31.236Z,97682.36
2022-09-18T03:42:04.426Z,97682.56
2022-09-18T03:42:37.794Z,97681.92
2022-09-18T03:43:11.421Z,97682.98
2022-09-18T03:43:44.966Z,97678.42
2022-09-18T03:44:18.084Z,97679.45
2022-09-18T03:44:51.169Z,97680.66
2022-09-18T03:45:24.338Z,97682.52
2022-09-18T03:45:57.466Z,97683.72
2022-09-18T03:46:30.708Z,97681.36
2022-09-18T03:47:04.217Z,97682.30
2022-09-18T03:47:38.008Z,97683.41
2022-09-18T03:48:11.442Z,97684.77
2022-09-18T03:48:44.608Z,97683.40
2022-09-18T03:49:18.189Z,97681.55
2022-09-18T03:49:51.471Z,97681.59
2022-09-18T03:50:24.614Z,97686.05
2022-09-18T03:50:57.677Z,97685.80
2022-09-18T03:51:30.998Z,97682.23
2022-09-18T03:52:04.604Z,97682.52
2022-09-18T03:52:37.664Z,97686.05
2022-09-18T03:53:12.825Z,97684.10
2022-09-18T03:53:47.542Z,97683.09
2022-09-18T03:54:20.697Z,97682.96
2022-09-18T03:54:55.206Z,97682.27
2022-09-18T03:55:28.358Z,97684.59
2022-09-18T03:56:01.518Z,97680.63
2022-09-18T03:56:34.803Z,97682.79
2022-09-18T03:57:07.936Z,97678.34
2022-09-18T03:57:41.053Z,97680.98
2022-09-18T03:58:14.178Z,97679.23
2022-09-18T03:58:47.351Z,97677.44
2022-09-18T03:59:20.376Z,97676.65
2022-09-18T03:59:54.129Z,97677.64
2022-09-18T04:00:27.424Z,97676.34
2022-09-18T04:01:00.679Z,97678.29
2022-09-18T04:01:33.935Z,97677.26
2022-09-18T04:02:07.326Z,97676.36
2022-09-18T04:02:41.173Z,97677.53
2022-09-18T04:03:14.558Z,97677.89
2022-09-18T04:03:47.805Z,97676.16
2022-09-18T04:04:20.881Z,97674.04
2022-09-18T04:04:54.375Z,97674.58
2022-09-18T04:05:27.560Z,97672.82
2022-09-18T04:06:00.859Z,97674.90
2022-09-18T04:06:33.995Z,97675.85
2022-09-18T04:07:08.533Z,97676.79
2022-09-18T04:07:41.608Z,97674.85
2022-09-18T04:08:14.603Z,97676.45
2022-09-18T04:08:47.650Z,97675.91
2022-09-18T04:09:20.854Z,97673.17
2022-09-18T04:09:54.057Z,97673.49
2022-09-18T04:10:27.684Z,97674.66
2022-09-18T04:11:00.940Z,97676.86
2022-09-18T04:11:33.963Z,97676.45
2022-09-18T04:12:07.291Z,97677.42
2022-09-18T04:12:40.503Z,97677.53
2022-09-18T04:13:13.645Z,97677.38
2022-09-18T04:13:46.883Z,97677.65
2022-09-18T04:14:20.035Z,97675.95
2022-09-18T04:14:53.360Z,97674.68
2022-09-18T04:15:28.299Z,97674.52
2022-09-18T04:16:02.050Z,97675.14
2022-09-18T04:16:35.183Z,97676.69
2022-09-18T04:17:08.373Z,97676.53
2022-09-18T04:17:41.489Z,97677.26
2022-09-18T04:18:14.684Z,97677.86
2022-09-18T04:18:48.561Z,97678.46
2022-09-18T04:19:21.722Z,97676.13
2022-09-18T04:19:55.206Z,97677.42
2022-09-18T04:20:29.381Z,97677.92
2022-09-18T04:21:02.562Z,97678.98
2022-09-18T04:21:35.739Z,97680.68
2022-09-18T04:22:08.937Z,97678.95
2022-09-18T04:22:42.047Z,97680.39
2022-09-18T04:23:15.617Z,97679.85
2022-09-18T04:23:49.527Z,97680.12
2022-09-18T04:24:22.645Z,97680.15
2022-09-18T04:24:55.790Z,97679.85
2022-09-18T04:25:29.070Z,97680.64
2022-09-18T04:26:09.175Z,97681.12
2022-09-18T04:26:42.191Z,97681.96
2022-09-18T04:27:15.303Z,97683.02
2022-09-18T04:27:48.346Z,97685.62
2022-09-18T04:28:21.454Z,97682.23
2022-09-18T04:28:54.507Z,97685.95
2022-09-18T04:29:27.645Z,97683.77
2022-09-18T04:30:00.832Z,97682.85
2022-09-18T04:30:34.139Z,97685.09
2022-09-18T04:31:07.434Z,97684.84
2022-09-18T04:31:40.730Z,97681.34
2022-09-18T04:32:14.133Z,97684.32
2022-09-18T04:32:47.456Z,97683.63
2022-09-18T04:33:20.695Z,97686.42
2022-09-18T04:33:54.044Z,97689.80
2022-09-18T04:34:27.292Z,97690.04
2022-09-18T04:35:00.629Z,97689.96
2022-09-18T04:35:34.208Z,97689.04
2022-09-18T04:36:07.486Z,97688.60
2022-09-18T04:36:40.665Z,97687.86
2022-09-18T04:37:13.676Z,97690.73
2022-09-18T04:37:46.877Z,97691.50
2022-09-18T04:38:27.730Z,97687.41
2022-09-18T04:39:01.100Z,97688.94
2022-09-18T04:39:34.333Z,97687.46
2022-09-18T04:40:08.007Z,97688.12
2022-09-18T04:40:41.368Z,97687.45
2022-09-18T04:41:14.779Z,97693.34
2022-09-18T04:41:47.957Z,97691.46
2022-09-18T04:42:21.054Z,97693.36
2022-09-18T04:42:54.088Z,97689.52
2022-09-18T04:43:28.343Z,97691.08
2022-09-18T04:44:01.729Z,97691.00
2022-09-18T04:44:34.930Z,97693.58
2022-09-18T04:45:08.807Z,97690.52
2022-09-18T04:45:45.498Z,97691.16
2022-09-18T04:46:18.705Z,97690.32
2022-09-18T04:46:51.987Z,97693.27
2022-09-18T04:47:25.257Z,97691.52
2022-09-18T04:47:58.480Z,97694.79
2022-09-18T04:48:31.739Z,97690.08
2022-09-18T04:49:05.213Z,97692.89
2022-09-18T04:49:38.666Z,97692.44
2022-09-18T04:50:11.956Z,97690.33
2022-09-18T04:50:48.951Z,97693.00
2022-09-18T04:51:22.211Z,97694.34
2022-09-18T04:51:55.470Z,97691.11
2022-09-18T04:52:28.905Z,97691.75
2022-09-18T04:53:01.974Z,97691.34
2022-09-18T04:53:38.287Z,97691.86
2022-09-18T04:54:12.090Z,97689.16
2022-09-18T04:54:45.297Z,97694.09
2022-09-18T04:55:18.409Z,97696.67
2022-09-18T04:55:51.960Z,97694.68
2022-09-18T04:56:25.171Z,97696.91
2022-09-18T04:56:58.421Z,97698.12
2022-09-18T04:57:31.623Z,97700.42
2022-09-18T04:58:05.544Z,97699.38
2022-09-18T04:58:38.743Z,97699.10
2022-09-18T04:59:11.894Z,97698.77
2022-09-18T04:59:45.100Z,97705.77
2022-09-18T05:00:18.232Z,97703.60
2022-09-18T05:00:51.572Z,97707.86
2022-09-18T05:01:25.043Z,97709.80
2022-09-18T05:01:59.581Z,97714.19
2022-09-18T05:02:33.002Z,97715.80
2022-09-18T05:03:06.985Z,97715.59
2022-09-18T05:03:40.105Z,97717.81
2022-09-18T05:04:13.508Z,97712.16
2022-09-18T05:04:46.655Z,97714.55
2022-09-18T05:05:19.762Z,97713.54
2022-09-18T05:05:53.039Z,97717.36
2022-09-18T05:06:26.514Z,97720.13
2022-09-18T05:06:59.629Z,97723.23
2022-09-18T05:07:33.058Z,97718.88
2022-09-18T05:08:06.775Z,97718.88
2022-09-18T05:08:39.819Z,97719.71
2022-09-18T05:09:13.322Z,97718.10
2022-09-18T05:09:46.622Z,97719.08
2022-09-18T05:10:19.891Z,97718.45
2022-09-18T05:10:54.113Z,97717.45
2022-09-18T05:11:28.302Z,97720.64
2022-09-18T05:12:02.211Z,97717.28
2022-09-18T05:12:35.335Z,97722.61
2022-09-18T05:13:09.177Z,97722.09
2022-09-18T05:13:43.633Z,97721.54
2022-09-18T05:14:16.716Z,97722.25
2022-09-18T05:14:49.894Z,97719.77
2022-09-18T05:15:23.383Z,97715.25
2022-09-18T05:15:58.405Z,97717.10
2022-09-18T05:16:31.797Z,97719.18
2022-09-18T05:17:05.282Z,97722.16
2022-09-18T05:17:42.032Z,97721.13
2022-09-18T05:18:15.420Z,97719.42
2022-09-18T05:18:48.575Z,97719.17
2022-09-18T05:19:21.747Z,97720.51
2022-09-18T05:19:55.588Z,97723.54
2022-09-18T05:20:29.116Z,97720.63
2022-09-18T05:21:03.761Z,97721.92
2022-09-18T05:21:37.145Z,97720.38
2022-09-18T05:22:10.493Z,97721.13
2022-09-18T05:22:47.453Z,97720.46
2022-09-18T05:23:20.598Z,97721.02
2022-09-18T05:23:53.853Z,97723.09
2022-09-18T05:24:26.941Z,97720.66
2022-09-18T05:25:00.366Z,97723.24
2022-09-18T05:25:33.684Z,97720.30
2022-09-18T05:26:07.225Z,97721.34
2022-09-18T05:26:40.550Z,97721.59
2022-09-18T05:27:13.757Z,97720.58
2022-09-18T05:27:57.699Z,97720.64
2022-09-18T05:28:31.372Z,97723.23
2022-09-18T05:29:04.758Z,97724.35
2022-09-18T05:29:37.984Z,97722.44
2022-09-18T05:30:11.206Z,97720.48
2022-09-18T05:30:44.289Z,97719.85
2022-09-18T05:31:18.092Z,97725.25
2022-09-18T05:31:51.532Z,97725.17
2022-09-18T05:32:24.918Z,97722.98
2022-09-18T05:33:00.688Z,97723.58
2022-09-18T05:33:47.471Z,97722.85
2022-09-18T05:34:20.627Z,97725.15
2022-09-18T05:34:53.839Z,97724.63
2022-09-18T05:35:29.114Z,97724.90
2022-09-18T05:36:04.487Z,97724.58
2022-09-18T05:36:37.640Z,97722.44
2022-09-18T05:37:10.844Z,97723.45
2022-09-18T05:37:44.026Z,97721.45
2022-09-18T05:38:17.052Z,97720.60
2022-09-18T05:38:50.179Z,97717.60
2022-09-18T05:39:23.369Z,97719.42
2022-09-18T05:39:56.840Z,97719.17
2022-09-18T05:40:33.887Z,97719.27
2022-09-18T05:41:07.124Z,97718.73
2022-09-18T05:41:40.220Z,97720.73
2022-09-18T05:42:13.876Z,97720.11
2022-09-18T05:42:48.369Z,97720.06
2022-09-18T05:43:21.596Z,97719.48
2022-09-18T05:43:55.087Z,97723.93
2022-09-18T05:44:28.317Z,97722.38
2022-09-18T05:45:02.158Z,97723.70
2022-09-18T05:45:35.543Z,97725.20
2022-09-18T05:46:08.959Z,97725.45
2022-09-18T05:46:42.393Z,97724.78
2022-09-18T05:47:15.617Z,97724.81
2022-09-18T05:48:00.812Z,97724.77
2022-09-18T05:48:34.033Z,97723.83
2022-09-18T05:49:07.203Z,97726.61
2022-09-18T05:49:40.197Z,97726.42
2022-09-18T05:50:13.361Z,97725.92
2022-09-18T05:50:46.833Z,97725.59
2022-09-18T05:51:20.226Z,97725.11
2022-09-18T05:51:55.007Z,97723.46
2022-09-18T05:52:28.197Z,97726.20
2022-09-18T05:53:02.784Z,97724.75
2022-09-18T05:53:36.103Z,97724.89
2022-09-18T05:54:09.071Z,97725.88
2022-09-18T05:54:42.578Z,97724.96
2022-09-18T05:55:15.843Z,97730.43
2022-09-18T05:55:49.056Z,97727.45
2022-09-18T05:56:22.304Z,97731.45
2022-09-18T05:56:55.432Z,97731.04
2022-09-18T05:57:28.805Z,97730.51
2022-09-18T05:58:03.532Z,97727.38
2022-09-18T05:58:36.620Z,97731.13
2022-09-18T05:59:09.736Z,97728.05
2022-09-18T05:59:43.288Z,97731.09
2022-09-18T06:00:16.668Z,97732.10
2022-09-18T06:00:51.575Z,97735.81
2022-09-18T06:01:24.722Z,97732.77
2022-09-18T06:01:58.458Z,97737.14
2022-09-18T06:02:31.648Z,97735.60
2022-09-18T06:03:07.659Z,97735.13
2022-09-18T06:03:41.644Z,97738.35
2022-09-18T06:04:15.055Z,97738.34
2022-09-18T06:04:48.109Z,97739.19
2022-09-18T06:05:21.646Z,97743.06
2022-09-18T06:05:55.599Z,97742.90
2022-09-18T06:06:30.088Z,97743.06
2022-09-18T06:07:03.425Z,97746.79
2022-09-18T06:07:36.646Z,97743.42
2022-09-18T06:08:11.670Z,97744.61
2022-09-18T06:08:44.749Z,97741.13
2022-09-18T06:09:18.025Z,97744.09
2022-09-18T06:09:51.106Z,97743.36
2022-09-18T06:10:24.482Z,97744.89
2022-09-18T06:11:01.411Z,97744.36
2022-09-18T06:11:34.654Z,97746.10
2022-09-18T06:12:07.919Z,97747.92
2022-09-18T06:12:41.127Z,97747.88
2022-09-18T06:13:16.817Z,97746.02
2022-09-18T06:13:52.055Z,97748.66
2022-09-18T06:14:25.118Z,97751.57
2022-09-18T06:14:58.271Z,97746.64
2022-09-18T06:15:32.485Z,97746.25
2022-09-18T06:16:06.009Z,97750.39
2022-09-18T06:16:42.330Z,97749.03
2022-09-18T06:17:15.717Z,97749.49
2022-09-18T06:17:52.336Z,97747.74
2022-09-18T06:18:26.468Z,97749.36
2022-09-18T06:18:59.596Z,97748.25
2022-09-18T06:19:32.746Z,97748.35
2022-09-18T06:20:08.655Z,97750.61
2022-09-18T06:20:42.803Z,97750.15
2022-09-18T06:21:17.086Z,97753.34
2022-09-18T06:21:50.703Z,97753.70
2022-09-18T06:22:24.065Z,97754.45
2022-09-18T06:23:01.592Z,97752.61
2022-09-18T06:23:34.966Z,97753.61
2022-09-18T06:24:09.876Z,97753.52
2022-09-18T06:24:43.321Z,97753.47
2022-09-18T06:25:19.606Z,97752.17
2022-09-18T06:26:00.892Z,97753.17
2022-09-18T06:26:34.144Z,97752.24
2022-09-18T06:27:07.890Z,97753.50
2022-09-18T06:27:41.145Z,97752.91
2022-09-18T06:28:14.488Z,97752.66
2022-09-18T06:28:48.625Z,97753.59
2022-09-18T06:29:21.840Z,97753.81
2022-09-18T06:29:55.060Z,97751.16
2022-09-18T06:30:32.625Z,97752.86
2022-09-18T06:31:06.231Z,97754.71
2022-09-18T06:31:39.664Z,97753.78
2022-09-18T06:32:13.462Z,97757.67
2022-09-18T06:32:46.890Z,97754.74
2022-09-18T06:33:20.225Z,97761.50
2022-09-18T06:33:53.378Z,97758.00
2022-09-18T06:34:26.845Z,97757.60
2022-09-18T06:35:00.063Z,97756.66
2022-09-18T06:35:34.795Z,97755.72
2022-09-18T06:36:14.125Z,97760.35
2022-09-18T06:36:47.316Z,97756.70
2022-09-18T06:37:20.550Z,97757.49
2022-09-18T06:37:53.912Z,97760.94
2022-09-18T06:38:27.203Z,97760.73
2022-09-18T06:39:00.630Z,97759.85
2022-09-18T06:39:33.988Z,97760.02
2022-09-18T06:40:07.830Z,97759.44
2022-09-18T06:40:49.485Z,97758.93
2022-09-18T06:41:24.395Z,97760.55
2022-09-18T06:42:00.426Z,97763.50
2022-09-18T06:42:33.633Z,97762.45
2022-09-18T06:43:06.855Z,97762.14
2022-09-18T06:43:40.030Z,97766.35
2022-09-18T06:44:13.577Z,97764.77
2022-09-18T06:44:46.901Z,97767.45
2022-09-18T06:45:20.139Z,97767.86
2022-09-18T06:45:57.956Z,97768.23
2022-09-18T06:46:31.249Z,97767.64
2022-09-18T06:47:04.646Z,97767.88
2022-09-18T06:47:38.066Z,97769.58
2022-09-18T06:48:11.321Z,97768.60
2022-09-18T06:48:44.443Z,97768.65
2022-09-18T06:49:17.740Z,97770.29
2022-09-18T06:49:51.055Z,97771.40
2022-09-18T06:50:25.512Z,97771.52
2022-09-18T06:50:59.832Z,97770.45
2022-09-18T06:51:32.909Z,97769.16
2022-09-18T06:52:06.240Z,97775.83
2022-09-18T06:52:39.410Z,97773.66
2022-09-18T06:53:12.970Z,97772.71
2022-09-18T06:53:46.478Z,97777.70
2022-09-18T06:54:19.535Z,97774.66
2022-09-18T06:54:52.732Z,97776.77
2022-09-18T06:55:27.416Z,97778.61
2022-09-18T06:56:02.815Z,97779.98
2022-09-18T06:56:35.851Z,97780.89
2022-09-18T06:57:09.213Z,97782.67
2022-09-18T06:57:42.974Z,97783.67
2022-09-18T06:58:17.631Z,97785.73
2022-09-18T06:58:53.930Z,97787.57
2022-09-18T06:59:27.432Z,97784.63
2022-09-18T07:00:00.744Z,97786.11
2022-09-18T07:00:34.337Z,97785.21
2022-09-18T07:01:07.769Z,97784.94
2022-09-18T07:01:41.506Z,97786.27
2022-09-18T07:02:19.231Z,97784.78
2022-09-18T07:03:00.750Z,97786.30
2022-09-18T07:03:33.913Z,97784.55
2022-09-18T07:04:07.143Z,97788.98
2022-09-18T07:04:41.259Z,97789.15
2022-09-18T07:05:14.524Z,97790.30
2022-09-18T07:05:47.772Z,97792.06
2022-09-18T07:06:20.971Z,97790.20
2022-09-18T07:06:54.634Z,97789.61
2022-09-18T07:07:27.907Z,97794.66
2022-09-18T07:08:01.929Z,97792.09
2022-09-18T07:08:35.049Z,97794.82
2022-09-18T07:09:08.177Z,97794.91
2022-09-18T07:09:41.501Z,97794.59
2022-09-18T07:10:14.820Z,97793.75